createdAt,value
2023-03-23T00:00:57.119Z,3.70
2023-03-23T00:01:57.151Z,4.60
2023-03-23T00:02:57.160Z,3.80
2023-03-23T00:03:57.167Z,3.40
2023-03-23T00:04:57.192Z,3.40
2023-03-23T00:05:57.227Z,3.30
2023-03-23T00:06:57.217Z,3.30
2023-03-23T00:07:57.242Z,4.10
2023-03-23T00:08:58.336Z,3.20
2023-03-23T00:09:57.266Z,3.00
2023-03-23T00:10:57.291Z,3.90
2023-03-23T00:11:57.298Z,3.20
2023-03-23T00:12:57.319Z,4.00
2023-03-23T00:13:57.337Z,3.40
2023-03-23T00:14:57.356Z,3.70
2023-03-23T00:15:57.364Z,4.70
2023-03-23T00:16:57.388Z,3.60
2023-03-23T00:17:57.401Z,3.90
2023-03-23T00:18:57.425Z,3.30
2023-03-23T00:19:57.435Z,3.10
2023-03-23T00:20:57.448Z,4.10
2023-03-23T00:21:57.490Z,3.00
2023-03-23T00:22:57.488Z,3.50
2023-03-23T00:23:57.496Z,3.00
2023-03-23T00:24:57.559Z,3.00
2023-03-23T00:25:57.537Z,3.00
2023-03-23T00:26:57.554Z,3.30
2023-03-23T00:27:57.572Z,3.20
2023-03-23T00:28:57.589Z,3.40
2023-03-23T00:29:57.605Z,3.50
2023-03-23T00:30:57.614Z,3.10
2023-03-23T00:31:57.641Z,3.20
2023-03-23T00:32:57.653Z,4.30
2023-03-23T00:33:57.663Z,3.00
2023-03-23T00:34:57.687Z,3.20
2023-03-23T00:35:57.768Z,3.00
2023-03-23T00:36:57.721Z,3.70
2023-03-23T00:37:57.821Z,2.80
2023-03-23T00:38:57.747Z,3.80
2023-03-23T00:39:57.763Z,3.10
2023-03-23T00:40:57.786Z,3.30
2023-03-23T00:41:57.804Z,3.00
2023-03-23T00:42:57.821Z,2.90
2023-03-23T00:43:57.837Z,2.80
2023-03-23T00:44:57.852Z,3.00
2023-03-23T00:45:57.874Z,2.90
2023-03-23T00:46:57.887Z,3.60
2023-03-23T00:47:57.900Z,2.80
2023-03-23T00:48:57.919Z,3.00
2023-03-23T00:49:57.937Z,2.50
2023-03-23T00:50:57.949Z,2.80
2023-03-23T00:51:57.961Z,2.90
2023-03-23T00:52:57.985Z,3.60
2023-03-23T00:53:58.014Z,2.60
2023-03-23T00:54:58.012Z,3.20
2023-03-23T00:55:58.026Z,2.90
2023-03-23T00:56:58.045Z,2.80
2023-03-23T00:57:58.058Z,3.00
2023-03-23T00:58:58.075Z,3.40
2023-03-23T00:59:58.093Z,2.90
2023-03-23T01:00:58.122Z,3.10
2023-03-23T01:01:58.132Z,2.90
2023-03-23T01:02:58.148Z,2.70
2023-03-23T01:03:58.167Z,3.20
2023-03-23T01:04:58.180Z,3.00
2023-03-23T01:05:58.196Z,3.10
2023-03-23T01:06:58.207Z,3.60
2023-03-23T01:07:58.229Z,3.00
2023-03-23T01:08:58.247Z,2.80
2023-03-23T01:09:58.284Z,2.60
2023-03-23T01:10:58.272Z,2.90
2023-03-23T01:11:58.287Z,2.60
2023-03-23T01:12:58.311Z,2.90
2023-03-23T01:13:58.324Z,2.80
2023-03-23T01:14:58.339Z,2.90
2023-03-23T01:15:58.359Z,2.80
2023-03-23T01:16:58.368Z,2.60
2023-03-23T01:17:58.385Z,2.40
2023-03-23T01:18:58.404Z,2.70
2023-03-23T01:19:58.420Z,3.00
2023-03-23T01:20:58.441Z,2.60
2023-03-23T01:21:58.450Z,2.60
2023-03-23T01:22:58.467Z,2.60
2023-03-23T01:23:58.490Z,2.60
2023-03-23T01:24:58.506Z,2.60
2023-03-23T01:25:58.543Z,2.70
2023-03-23T01:26:58.541Z,2.40
2023-03-23T01:27:58.557Z,2.80
2023-03-23T01:28:58.562Z,2.30
2023-03-23T01:29:58.581Z,2.60
2023-03-23T01:30:58.597Z,3.70
2023-03-23T01:31:58.613Z,2.70
2023-03-23T01:32:58.637Z,2.30
2023-03-23T01:33:58.656Z,2.90
2023-03-23T01:34:58.668Z,3.00
2023-03-23T01:35:58.736Z,3.10
2023-03-23T01:36:58.703Z,2.70
2023-03-23T01:37:58.720Z,2.60
2023-03-23T01:38:58.730Z,2.70
2023-03-23T01:39:58.745Z,2.40
2023-03-23T01:40:58.770Z,2.10
2023-03-23T01:41:58.799Z,2.30
2023-03-23T01:42:58.803Z,2.70
2023-03-23T01:43:58.821Z,2.60
2023-03-23T01:44:58.840Z,2.50
2023-03-23T01:45:58.853Z,2.40
2023-03-23T01:46:58.860Z,2.80
2023-03-23T01:47:58.880Z,2.50
2023-03-23T01:48:58.901Z,2.80
2023-03-23T01:49:58.911Z,2.30
2023-03-23T01:50:58.939Z,2.50
2023-03-23T01:51:58.946Z,2.50
2023-03-23T01:52:58.965Z,3.10
2023-03-23T01:53:58.997Z,2.30
2023-03-23T01:54:59.015Z,2.20
2023-03-23T01:55:59.028Z,2.50
2023-03-23T01:56:59.032Z,2.40
2023-03-23T01:57:59.062Z,2.50
2023-03-23T01:58:59.067Z,2.20
2023-03-23T01:59:59.074Z,2.50
2023-03-23T02:00:59.097Z,2.60
2023-03-23T02:01:59.113Z,2.30
2023-03-23T02:02:59.130Z,2.40
2023-03-23T02:03:59.146Z,2.50
2023-03-23T02:04:59.160Z,2.40
2023-03-23T02:05:59.184Z,2.40
2023-03-23T02:06:59.192Z,2.40
2023-03-23T02:07:59.204Z,3.10
2023-03-23T02:08:59.228Z,2.30
2023-03-23T02:09:59.244Z,2.20
2023-03-23T02:10:59.260Z,2.30
2023-03-23T02:11:59.269Z,2.40
2023-03-23T02:12:59.288Z,2.10
2023-03-23T02:13:59.322Z,3.50
2023-03-23T02:14:59.331Z,2.30
2023-03-23T02:15:59.357Z,2.30
2023-03-23T02:16:59.354Z,2.60
2023-03-23T02:17:59.366Z,2.50
2023-03-23T02:18:59.388Z,2.40
2023-03-23T02:19:59.398Z,2.70
2023-03-23T02:20:59.515Z,2.30
2023-03-23T02:21:59.437Z,2.20
2023-03-23T02:22:59.453Z,2.70
2023-03-23T02:23:59.470Z,2.30
2023-03-23T02:24:59.478Z,2.20
2023-03-23T02:25:59.502Z,2.20
2023-03-23T02:26:59.518Z,2.50
2023-03-23T02:27:59.535Z,2.30
2023-03-23T02:28:59.543Z,2.40
2023-03-23T02:29:59.590Z,2.60
2023-03-23T02:30:59.583Z,2.70
2023-03-23T02:31:59.592Z,2.10
2023-03-23T02:32:59.611Z,2.20
2023-03-23T02:33:59.624Z,2.20
2023-03-23T02:34:59.651Z,2.20
2023-03-23T02:35:59.746Z,2.80
2023-03-23T02:36:59.674Z,2.30
2023-03-23T02:37:59.697Z,3.20
2023-03-23T02:38:59.709Z,2.20
2023-03-23T02:39:59.760Z,2.10
2023-03-23T02:40:59.745Z,2.20
2023-03-23T02:41:59.794Z,2.40
2023-03-23T02:42:59.781Z,2.20
2023-03-23T02:43:59.794Z,2.30
2023-03-23T02:44:59.811Z,3.10
2023-03-23T02:45:59.839Z,4.00
2023-03-23T02:46:59.844Z,2.30
2023-03-23T02:47:59.857Z,2.10
2023-03-23T02:48:59.873Z,2.20
2023-03-23T02:49:59.892Z,2.30
2023-03-23T02:50:59.906Z,2.80
2023-03-23T02:51:59.924Z,2.20
2023-03-23T02:52:59.969Z,2.00
2023-03-23T02:53:59.955Z,2.50
2023-03-23T02:54:59.970Z,2.10
2023-03-23T02:55:59.986Z,2.30
2023-03-23T02:57:00.010Z,2.90
2023-03-23T02:58:00.031Z,2.00
2023-03-23T02:59:00.038Z,2.40
2023-03-23T03:00:00.051Z,2.90
2023-03-23T03:01:00.084Z,2.40
2023-03-23T03:02:00.125Z,3.20
2023-03-23T03:03:00.112Z,2.70
2023-03-23T03:04:00.129Z,2.80
2023-03-23T03:05:00.179Z,2.40
2023-03-23T03:06:00.139Z,2.40
2023-03-23T03:07:00.160Z,2.30
2023-03-23T03:08:00.191Z,3.20
2023-03-23T03:09:00.191Z,2.20
2023-03-23T03:10:00.209Z,3.40
2023-03-23T03:11:00.221Z,2.00
2023-03-23T03:12:00.244Z,2.20
2023-03-23T03:13:00.260Z,2.40
2023-03-23T03:14:00.276Z,2.00
2023-03-23T03:15:00.297Z,2.20
2023-03-23T03:16:00.309Z,2.50
2023-03-23T03:17:00.317Z,2.60
2023-03-23T03:18:00.362Z,2.40
2023-03-23T03:19:00.370Z,2.10
2023-03-23T03:20:00.366Z,2.20
2023-03-23T03:21:00.394Z,2.30
2023-03-23T03:22:00.407Z,2.90
2023-03-23T03:23:00.424Z,2.20
2023-03-23T03:24:00.442Z,2.30
2023-03-23T03:25:00.452Z,2.50
2023-03-23T03:26:00.466Z,2.20
2023-03-23T03:27:00.493Z,2.30
2023-03-23T03:28:00.515Z,2.30
2023-03-23T03:29:00.517Z,2.60
2023-03-23T03:30:00.533Z,2.10
2023-03-23T03:31:00.558Z,2.90
2023-03-23T03:32:00.566Z,2.60
2023-03-23T03:33:00.579Z,2.10
2023-03-23T03:34:00.619Z,2.00
2023-03-23T03:35:00.621Z,2.10
2023-03-23T03:36:00.668Z,3.30
2023-03-23T03:37:00.645Z,3.10
2023-03-23T03:38:00.660Z,2.30
2023-03-23T03:39:00.686Z,2.20
2023-03-23T03:40:00.693Z,3.00
2023-03-23T03:41:00.717Z,3.80
2023-03-23T03:42:00.727Z,2.40
2023-03-23T03:43:00.743Z,3.10
2023-03-23T03:44:00.773Z,2.30
2023-03-23T03:45:00.781Z,2.20
2023-03-23T03:46:00.798Z,2.30
2023-03-23T03:47:00.816Z,3.10
2023-03-23T03:48:00.829Z,2.40
2023-03-23T03:49:00.846Z,2.70
2023-03-23T03:50:00.887Z,2.10
2023-03-23T03:51:00.887Z,2.40
2023-03-23T03:52:00.896Z,2.50
2023-03-23T03:53:00.918Z,3.60
2023-03-23T03:54:00.930Z,2.40
2023-03-23T03:55:00.941Z,2.30
2023-03-23T03:56:00.974Z,3.30
2023-03-23T03:57:00.976Z,2.40
2023-03-23T03:58:00.991Z,3.70
2023-03-23T03:59:01.000Z,2.40
2023-03-23T04:00:01.023Z,2.90
2023-03-23T04:01:01.044Z,2.40
2023-03-23T04:02:01.065Z,2.40
2023-03-23T04:03:01.070Z,2.50
2023-03-23T04:04:01.098Z,2.30
2023-03-23T04:05:01.110Z,2.30
2023-03-23T04:06:01.132Z,2.70
2023-03-23T04:07:01.143Z,2.90
2023-03-23T04:08:09.547Z,2.50
2023-03-23T04:09:07.819Z,2.40
2023-03-23T04:10:01.185Z,2.30
2023-03-23T04:11:01.195Z,2.80
2023-03-23T04:12:01.210Z,2.50
2023-03-23T04:13:01.233Z,2.30
2023-03-23T04:14:01.256Z,2.10
2023-03-23T04:15:06.231Z,2.30
2023-03-23T04:16:10.357Z,2.60
2023-03-23T04:17:01.291Z,2.30
2023-03-23T04:18:01.331Z,2.60
2023-03-23T04:19:01.326Z,3.10
2023-03-23T04:20:01.338Z,2.30
2023-03-23T04:21:01.365Z,2.40
2023-03-23T04:22:01.390Z,2.70
2023-03-23T04:23:01.400Z,2.40
2023-03-23T04:24:01.411Z,2.90
2023-03-23T04:25:01.420Z,2.40
2023-03-23T04:26:01.441Z,2.90
2023-03-23T04:27:02.836Z,2.40
2023-03-23T04:28:01.703Z,2.30
2023-03-23T04:29:01.485Z,2.20
2023-03-23T04:30:01.529Z,3.40
2023-03-23T04:31:01.529Z,2.10
2023-03-23T04:32:01.540Z,2.40
2023-03-23T04:33:01.557Z,2.40
2023-03-23T04:34:01.574Z,2.40
2023-03-23T04:35:12.824Z,2.70
2023-03-23T04:36:01.601Z,2.60
2023-03-23T04:37:01.618Z,2.80
2023-03-23T04:38:01.655Z,2.80
2023-03-23T04:39:01.646Z,2.80
2023-03-23T04:40:01.674Z,2.40
2023-03-23T04:41:01.683Z,2.50
2023-03-23T04:42:01.710Z,2.20
2023-03-23T04:43:01.717Z,2.30
2023-03-23T04:44:01.740Z,2.30
2023-03-23T04:45:01.750Z,2.50
2023-03-23T04:46:01.772Z,2.80
2023-03-23T04:47:01.790Z,3.50
2023-03-23T04:48:01.791Z,2.60
2023-03-23T04:49:01.815Z,2.50
2023-03-23T04:50:01.839Z,2.50
2023-03-23T04:51:01.839Z,2.40
2023-03-23T04:52:01.860Z,2.20
2023-03-23T04:53:01.871Z,2.90
2023-03-23T04:54:01.908Z,3.00
2023-03-23T04:55:01.907Z,2.20
2023-03-23T04:56:01.926Z,2.40
2023-03-23T04:57:01.945Z,3.50
2023-03-23T04:58:01.951Z,3.50
2023-03-23T04:59:01.984Z,2.70
2023-03-23T05:00:01.994Z,3.70
2023-03-23T05:01:02.006Z,2.70
2023-03-23T05:02:14.619Z,3.20
2023-03-23T05:03:02.033Z,3.70
2023-03-23T05:04:02.060Z,3.60
2023-03-23T05:05:02.062Z,2.40
2023-03-23T05:06:02.085Z,2.30
2023-03-23T05:07:02.101Z,3.10
2023-03-23T05:08:02.112Z,3.20
2023-03-23T05:09:02.151Z,3.20
2023-03-23T05:10:02.171Z,3.00
2023-03-23T05:11:02.160Z,2.50
2023-03-23T05:12:02.174Z,3.50
2023-03-23T05:13:02.198Z,2.80
2023-03-23T05:14:02.215Z,4.50
2023-03-23T05:15:02.229Z,2.90
2023-03-23T05:16:02.242Z,2.50
2023-03-23T05:17:02.279Z,3.20
2023-03-23T05:18:02.276Z,2.20
2023-03-23T05:19:02.301Z,4.10
2023-03-23T05:20:02.308Z,2.80
2023-03-23T05:21:02.321Z,2.90
2023-03-23T05:22:02.342Z,2.90
2023-03-23T05:23:02.357Z,3.30
2023-03-23T05:24:02.373Z,3.00
2023-03-23T05:25:02.393Z,2.90
2023-03-23T05:26:02.427Z,2.40
2023-03-23T05:27:02.425Z,4.10
2023-03-23T05:28:02.431Z,3.70
2023-03-23T05:29:02.505Z,3.00
2023-03-23T05:30:02.477Z,3.20
2023-03-23T05:31:02.479Z,2.50
2023-03-23T05:32:02.504Z,2.60
2023-03-23T05:33:02.516Z,2.70
2023-03-23T05:34:02.524Z,3.00
2023-03-23T05:35:02.550Z,3.00
2023-03-23T05:36:02.571Z,4.10
2023-03-23T05:37:02.585Z,3.10
2023-03-23T05:38:02.611Z,3.10
2023-03-23T05:39:02.605Z,3.40
2023-03-23T05:40:02.635Z,4.00
2023-03-23T05:41:02.653Z,3.90
2023-03-23T05:42:02.672Z,2.60
2023-03-23T05:43:02.671Z,2.80
2023-03-23T05:44:02.690Z,2.70
2023-03-23T05:45:02.705Z,2.60
2023-03-23T05:46:02.717Z,2.70
2023-03-23T05:47:02.734Z,3.00
2023-03-23T05:48:02.748Z,3.50
2023-03-23T05:49:02.769Z,3.40
2023-03-23T05:50:02.777Z,3.10
2023-03-23T05:51:02.803Z,2.80
2023-03-23T05:52:02.806Z,3.40
2023-03-23T05:53:02.831Z,2.90
2023-03-23T05:54:02.849Z,3.20
2023-03-23T05:55:02.861Z,3.50
2023-03-23T05:56:02.875Z,2.80
2023-03-23T05:57:02.897Z,3.70
2023-03-23T05:58:02.933Z,3.90
2023-03-23T05:59:02.927Z,3.40
2023-03-23T06:00:02.943Z,2.80
2023-03-23T06:01:02.956Z,3.00
2023-03-23T06:02:02.980Z,3.10
2023-03-23T06:03:02.987Z,2.90
2023-03-23T06:04:03.011Z,3.20
2023-03-23T06:05:03.022Z,3.30
2023-03-23T06:06:03.036Z,3.20
2023-03-23T06:07:03.053Z,3.10
2023-03-23T06:08:03.067Z,3.10
2023-03-23T06:09:03.093Z,3.10
2023-03-23T06:10:03.102Z,4.50
2023-03-23T06:11:03.122Z,3.20
2023-03-23T06:12:03.135Z,3.20
2023-03-23T06:13:03.153Z,3.00
2023-03-23T06:14:03.206Z,4.00
2023-03-23T06:15:03.180Z,2.80
2023-03-23T06:16:03.195Z,3.50
2023-03-23T06:17:03.222Z,3.90
2023-03-23T06:18:03.228Z,5.20
2023-03-23T06:19:03.250Z,2.70
2023-03-23T06:20:03.263Z,3.10
2023-03-23T06:21:03.356Z,3.60
2023-03-23T06:22:03.290Z,3.90
2023-03-23T06:23:03.324Z,3.90
2023-03-23T06:24:03.331Z,3.70
2023-03-23T06:25:03.344Z,2.90
2023-03-23T06:26:04.722Z,3.50
2023-03-23T06:27:03.381Z,3.30
2023-03-23T06:28:03.393Z,3.10
2023-03-23T06:29:03.403Z,3.20
2023-03-23T06:30:03.450Z,2.70
2023-03-23T06:31:03.441Z,3.20
2023-03-23T06:32:03.462Z,3.80
2023-03-23T06:33:03.466Z,3.80
2023-03-23T06:34:03.483Z,2.80
2023-03-23T06:35:03.515Z,3.20
2023-03-23T06:36:03.584Z,3.30
2023-03-23T06:37:03.536Z,3.60
2023-03-23T06:38:03.546Z,3.50
2023-03-23T06:39:03.587Z,3.10
2023-03-23T06:40:03.593Z,3.20
2023-03-23T06:41:04.167Z,3.80
2023-03-23T06:42:03.625Z,3.20
2023-03-23T06:43:03.629Z,3.60
2023-03-23T06:44:03.644Z,3.80
2023-03-23T06:45:03.669Z,4.50
2023-03-23T06:46:03.695Z,3.20
2023-03-23T06:47:03.699Z,4.20
2023-03-23T06:48:03.706Z,3.70
2023-03-23T06:49:03.734Z,4.80
2023-03-23T06:50:03.738Z,3.30
2023-03-23T06:51:03.758Z,4.20
2023-03-23T06:52:03.778Z,4.20
2023-03-23T06:53:03.808Z,3.50
2023-03-23T06:54:03.813Z,3.40
2023-03-23T06:55:03.834Z,4.30
2023-03-23T06:56:03.862Z,3.50
2023-03-23T06:57:03.863Z,3.50
2023-03-23T06:58:03.866Z,4.50
2023-03-23T06:59:03.892Z,3.80
2023-03-23T07:00:03.920Z,4.00
2023-03-23T07:01:03.922Z,4.30
2023-03-23T07:02:03.955Z,3.60
2023-03-23T07:03:03.956Z,3.40
2023-03-23T07:04:03.961Z,3.40
2023-03-23T07:05:03.985Z,3.80
2023-03-23T07:06:04.408Z,4.20
2023-03-23T07:07:04.009Z,7.00
2023-03-23T07:08:04.031Z,3.80
2023-03-23T07:09:04.048Z,4.40
2023-03-23T07:10:04.063Z,4.80
2023-03-23T07:11:04.076Z,4.80
2023-03-23T07:12:04.106Z,3.60
2023-03-23T07:13:04.115Z,5.40
2023-03-23T07:14:04.118Z,3.70
2023-03-23T07:15:04.135Z,3.90
2023-03-23T07:16:04.149Z,3.50
2023-03-23T07:17:04.187Z,5.00
2023-03-23T07:18:04.209Z,3.90
2023-03-23T07:19:04.212Z,5.00
2023-03-23T07:20:04.220Z,3.80
2023-03-23T07:21:04.238Z,3.80
2023-03-23T07:22:04.255Z,4.60
2023-03-23T07:23:04.270Z,4.20
2023-03-23T07:24:04.287Z,4.20
2023-03-23T07:25:37.503Z,4.20
2023-03-23T07:26:04.317Z,5.50
2023-03-23T07:27:04.334Z,4.50
2023-03-23T07:28:04.343Z,3.90
2023-03-23T07:29:04.359Z,4.00
2023-03-23T07:30:04.379Z,3.80
2023-03-23T07:31:04.397Z,3.40
2023-03-23T07:32:04.413Z,4.20
2023-03-23T07:33:04.420Z,3.50
2023-03-23T07:34:04.462Z,4.60
2023-03-23T07:35:07.356Z,4.40
2023-03-23T07:36:04.537Z,4.50
2023-03-23T07:37:04.487Z,4.40
2023-03-23T07:38:04.506Z,4.10
2023-03-23T07:39:04.513Z,3.90
2023-03-23T07:40:04.530Z,5.50
2023-03-23T07:41:04.552Z,5.10
2023-03-23T07:42:04.562Z,3.80
2023-03-23T07:43:04.587Z,5.10
2023-03-23T07:44:04.600Z,3.80
2023-03-23T07:45:04.607Z,4.50
2023-03-23T07:46:04.631Z,3.90
2023-03-23T07:47:04.638Z,4.30
2023-03-23T07:48:09.749Z,4.60
2023-03-23T07:49:04.679Z,4.60
2023-03-23T07:50:04.718Z,4.40
2023-03-23T07:51:04.709Z,5.00
2023-03-23T07:52:04.718Z,4.40
2023-03-23T07:53:04.746Z,4.20
2023-03-23T07:54:06.697Z,3.90
2023-03-23T07:55:04.771Z,5.00
2023-03-23T07:56:04.782Z,3.50
2023-03-23T07:57:05.024Z,4.90
2023-03-23T07:58:04.812Z,4.50
2023-03-23T07:59:04.828Z,3.90
2023-03-23T08:00:04.842Z,4.00
2023-03-23T08:01:04.870Z,4.20
2023-03-23T08:02:04.876Z,4.20
2023-03-23T08:03:04.891Z,4.70
2023-03-23T08:04:04.914Z,4.70
2023-03-23T08:05:04.922Z,4.80
2023-03-23T08:06:04.964Z,4.90
2023-03-23T08:07:04.967Z,4.10
2023-03-23T08:08:04.968Z,3.90
2023-03-23T08:09:04.991Z,4.80
2023-03-23T08:10:05.000Z,3.70
2023-03-23T08:11:05.028Z,3.60
2023-03-23T08:12:05.031Z,4.60
2023-03-23T08:13:05.046Z,4.30
2023-03-23T08:14:05.062Z,4.30
2023-03-23T08:15:05.089Z,5.50
2023-03-23T08:16:05.199Z,5.60
2023-03-23T08:17:05.127Z,4.70
2023-03-23T08:18:05.125Z,4.00
2023-03-23T08:19:08.827Z,5.20
2023-03-23T08:20:05.156Z,4.90
2023-03-23T08:21:05.185Z,4.90
2023-03-23T08:22:05.214Z,4.40
2023-03-23T08:23:05.210Z,4.90
2023-03-23T08:24:05.233Z,4.20
2023-03-23T08:25:05.249Z,5.00
2023-03-23T08:26:05.256Z,5.60
2023-03-23T08:27:05.264Z,4.30
2023-03-23T08:28:05.294Z,4.20
2023-03-23T08:29:05.405Z,5.00
2023-03-23T08:30:05.329Z,4.30
2023-03-23T08:31:05.328Z,5.90
2023-03-23T08:32:05.345Z,3.70
2023-03-23T08:33:05.367Z,4.20
2023-03-23T08:34:05.383Z,5.20
2023-03-23T08:35:05.399Z,4.30
2023-03-23T08:36:05.434Z,4.60
2023-03-23T08:37:05.427Z,5.50
2023-03-23T08:38:05.472Z,3.90
2023-03-23T08:39:05.458Z,5.30
2023-03-23T08:40:05.551Z,4.10
2023-03-23T08:41:05.491Z,4.60
2023-03-23T08:42:05.499Z,5.40
2023-03-23T08:43:05.515Z,4.40
2023-03-23T08:44:05.532Z,4.20
2023-03-23T08:45:05.551Z,4.00
2023-03-23T08:46:05.570Z,5.50
2023-03-23T08:47:05.585Z,4.60
2023-03-23T08:48:05.603Z,5.80
2023-03-23T08:49:05.616Z,4.70
2023-03-23T08:50:05.639Z,4.80
2023-03-23T08:51:05.651Z,4.80
2023-03-23T08:52:05.667Z,4.50
2023-03-23T08:53:05.672Z,5.40
2023-03-23T08:54:05.707Z,4.80
2023-03-23T08:55:05.704Z,4.20
2023-03-23T08:56:05.739Z,4.40
2023-03-23T08:57:05.734Z,4.60
2023-03-23T08:58:05.751Z,5.40
2023-03-23T08:59:05.766Z,6.10
2023-03-23T09:00:05.791Z,4.60
2023-03-23T09:01:05.806Z,5.70
2023-03-23T09:02:05.816Z,6.10
2023-03-23T09:03:05.836Z,4.70
2023-03-23T09:04:05.853Z,5.00
2023-03-23T09:05:05.868Z,4.60
2023-03-23T09:06:05.887Z,4.90
2023-03-23T09:07:05.903Z,5.10
2023-03-23T09:08:05.914Z,4.90
2023-03-23T09:09:05.929Z,5.70
2023-03-23T09:10:05.958Z,4.00
2023-03-23T09:11:05.961Z,4.30
2023-03-23T09:12:05.969Z,4.70
2023-03-23T09:13:05.992Z,4.60
2023-03-23T09:14:06.008Z,4.20
2023-03-23T09:15:06.025Z,4.40
2023-03-23T09:16:06.039Z,4.40
2023-03-23T09:17:06.047Z,4.70
2023-03-23T09:18:06.590Z,4.30
2023-03-23T09:19:06.080Z,4.30
2023-03-23T09:20:06.102Z,5.10
2023-03-23T09:21:06.114Z,4.90
2023-03-23T09:22:06.135Z,4.40
2023-03-23T09:23:06.146Z,4.30
2023-03-23T09:24:06.169Z,4.40
2023-03-23T09:25:07.045Z,4.60
2023-03-23T09:26:06.225Z,5.20
2023-03-23T09:27:06.206Z,4.80
2023-03-23T09:28:06.227Z,4.90
2023-03-23T09:29:06.243Z,4.00
2023-03-23T09:30:06.254Z,4.80
2023-03-23T09:31:06.268Z,4.70
2023-03-23T09:32:06.307Z,4.10
2023-03-23T09:33:06.302Z,4.60
2023-03-23T09:34:06.320Z,3.80
2023-03-23T09:35:06.335Z,3.90
2023-03-23T09:36:06.407Z,4.40
2023-03-23T09:37:06.364Z,4.20
2023-03-23T09:38:06.385Z,4.00
2023-03-23T09:39:06.401Z,4.60
2023-03-23T09:40:07.137Z,3.90
2023-03-23T09:41:06.432Z,5.40
2023-03-23T09:42:06.470Z,5.30
2023-03-23T09:43:06.457Z,3.90
2023-03-23T09:44:06.493Z,5.20
2023-03-23T09:45:06.489Z,4.40
2023-03-23T09:46:06.513Z,5.20
2023-03-23T09:47:06.519Z,4.30
2023-03-23T09:48:08.353Z,4.10
2023-03-23T09:49:06.553Z,5.00
2023-03-23T09:50:06.587Z,4.80
2023-03-23T09:51:06.588Z,3.50
2023-03-23T09:52:06.596Z,5.30
2023-03-23T09:53:06.612Z,4.10
2023-03-23T09:54:06.634Z,5.00
2023-03-23T09:55:06.644Z,4.10
2023-03-23T09:56:06.665Z,4.00
2023-03-23T09:57:06.674Z,3.80
2023-03-23T09:58:06.730Z,4.10
2023-03-23T09:59:06.704Z,4.90
2023-03-23T10:00:06.735Z,4.30
2023-03-23T10:01:06.767Z,3.80
2023-03-23T10:02:06.759Z,4.80
2023-03-23T10:03:06.777Z,5.30
2023-03-23T10:04:06.786Z,4.90
2023-03-23T10:05:06.800Z,5.40
2023-03-23T10:06:06.823Z,4.80
2023-03-23T10:07:06.831Z,4.30
2023-03-23T10:08:06.844Z,4.90
2023-03-23T10:09:06.862Z,4.50
2023-03-23T10:10:06.879Z,4.60
2023-03-23T10:11:06.891Z,4.10
2023-03-23T10:12:06.907Z,3.70
2023-03-23T10:13:06.922Z,3.90
2023-03-23T10:14:06.966Z,4.70
2023-03-23T10:15:06.955Z,3.80
2023-03-23T10:16:06.991Z,4.80
2023-03-23T10:17:07.455Z,3.60
2023-03-23T10:18:07.008Z,4.20
2023-03-23T10:19:07.025Z,3.90
2023-03-23T10:20:07.034Z,4.30
2023-03-23T10:21:07.047Z,5.00
2023-03-23T10:22:07.064Z,4.70
2023-03-23T10:23:07.082Z,3.70
2023-03-23T10:24:07.101Z,4.10
2023-03-23T10:25:07.117Z,4.20
2023-03-23T10:26:07.135Z,6.40
2023-03-23T10:27:07.154Z,4.60
2023-03-23T10:28:07.175Z,5.90
2023-03-23T10:29:07.175Z,5.40
2023-03-23T10:30:07.231Z,4.00
2023-03-23T10:31:07.212Z,5.10
2023-03-23T10:32:07.226Z,4.10
2023-03-23T10:33:07.248Z,4.30
2023-03-23T10:34:07.256Z,4.60
2023-03-23T10:35:07.271Z,4.70
2023-03-23T10:36:07.308Z,4.10
2023-03-23T10:37:07.299Z,3.90
2023-03-23T10:38:07.324Z,4.90
2023-03-23T10:39:07.329Z,3.90
2023-03-23T10:40:07.356Z,4.40
2023-03-23T10:41:07.384Z,3.90
2023-03-23T10:42:07.388Z,4.80
2023-03-23T10:43:07.411Z,5.20
2023-03-23T10:44:07.609Z,4.60
2023-03-23T10:45:07.424Z,5.80
2023-03-23T10:46:07.468Z,4.90
2023-03-23T10:47:07.463Z,4.80
2023-03-23T10:48:07.473Z,4.60
2023-03-23T10:49:07.492Z,4.70
2023-03-23T10:50:07.506Z,5.40
2023-03-23T10:51:07.520Z,4.40
2023-03-23T10:52:07.532Z,4.40
2023-03-23T10:53:07.556Z,4.40
2023-03-23T10:54:08.462Z,5.00
2023-03-23T10:55:07.597Z,4.60
2023-03-23T10:56:07.598Z,6.20
2023-03-23T10:57:07.610Z,4.70
2023-03-23T10:58:07.632Z,5.30
2023-03-23T10:59:07.647Z,4.00
2023-03-23T11:00:07.662Z,5.10
2023-03-23T11:01:07.678Z,4.50
2023-03-23T11:02:08.552Z,4.80
2023-03-23T11:03:07.708Z,5.30
2023-03-23T11:04:07.727Z,4.90
2023-03-23T11:05:09.527Z,3.90
2023-03-23T11:06:07.749Z,4.40
2023-03-23T11:07:07.772Z,5.40
2023-03-23T11:08:07.784Z,4.90
2023-03-23T11:09:07.801Z,5.10
2023-03-23T11:10:07.811Z,4.20
2023-03-23T11:11:07.833Z,4.50
2023-03-23T11:12:07.848Z,4.10
2023-03-23T11:13:07.864Z,5.50
2023-03-23T11:14:07.880Z,3.70
2023-03-23T11:15:07.896Z,4.90
2023-03-23T11:16:07.910Z,4.20
2023-03-23T11:17:15.733Z,4.30
2023-03-23T11:18:07.966Z,4.10
2023-03-23T11:19:07.957Z,5.20
2023-03-23T11:20:07.966Z,4.80
2023-03-23T11:21:07.995Z,4.80
2023-03-23T11:22:08.005Z,5.00
2023-03-23T11:23:08.013Z,4.50
2023-03-23T11:24:10.165Z,3.80
2023-03-23T11:25:08.042Z,4.60
2023-03-23T11:26:08.068Z,3.80
2023-03-23T11:27:08.076Z,4.30
2023-03-23T11:28:08.101Z,4.40
2023-03-23T11:29:08.113Z,5.00
2023-03-23T11:30:08.124Z,4.60
2023-03-23T11:31:08.151Z,4.50
2023-03-23T11:32:08.161Z,4.20
2023-03-23T11:33:08.171Z,4.70
2023-03-23T11:34:08.209Z,3.80
2023-03-23T11:35:16.147Z,4.00
2023-03-23T11:36:08.263Z,4.60
2023-03-23T11:37:08.234Z,4.30
2023-03-23T11:38:08.251Z,4.40
2023-03-23T11:39:08.268Z,4.10
2023-03-23T11:40:08.277Z,4.30
2023-03-23T11:41:08.297Z,4.40
2023-03-23T11:42:09.786Z,4.60
2023-03-23T11:43:08.328Z,4.00
2023-03-23T11:44:08.341Z,5.10
2023-03-23T11:45:08.371Z,3.90
2023-03-23T11:46:08.373Z,4.40
2023-03-23T11:47:08.388Z,4.20
2023-03-23T11:48:08.407Z,4.00
2023-03-23T11:49:19.276Z,5.00
2023-03-23T11:50:08.458Z,4.30
2023-03-23T11:51:08.445Z,5.10
2023-03-23T11:52:08.466Z,4.60
2023-03-23T11:53:08.482Z,4.50
2023-03-23T11:54:08.491Z,4.50
2023-03-23T11:55:08.505Z,4.20
2023-03-23T11:56:08.561Z,5.70
2023-03-23T11:57:08.546Z,4.20
2023-03-23T11:58:08.552Z,5.20
2023-03-23T11:59:08.580Z,6.00
2023-03-23T12:00:08.582Z,4.10
2023-03-23T12:01:08.604Z,4.50
2023-03-23T12:02:16.912Z,4.90
2023-03-23T12:03:08.628Z,4.50
2023-03-23T12:04:08.648Z,4.40
2023-03-23T12:05:08.669Z,4.30
2023-03-23T12:06:08.700Z,4.50
2023-03-23T12:07:08.702Z,4.70
2023-03-23T12:08:08.707Z,4.90
2023-03-23T12:09:08.723Z,4.40
2023-03-23T12:10:08.744Z,5.00
2023-03-23T12:11:08.760Z,4.30
2023-03-23T12:12:08.775Z,4.60
2023-03-23T12:13:09.391Z,4.80
2023-03-23T12:14:08.840Z,4.40
2023-03-23T12:15:08.822Z,4.90
2023-03-23T12:16:08.837Z,4.70
2023-03-23T12:17:08.845Z,4.50
2023-03-23T12:18:08.867Z,4.70
2023-03-23T12:19:08.879Z,4.00
2023-03-23T12:20:08.898Z,3.90
2023-03-23T12:21:08.910Z,4.80
2023-03-23T12:22:08.949Z,4.40
2023-03-23T12:23:08.945Z,4.20
2023-03-23T12:24:08.959Z,4.90
2023-03-23T12:25:08.969Z,4.60
2023-03-23T12:26:08.991Z,4.10
2023-03-23T12:27:09.002Z,4.60
2023-03-23T12:28:09.023Z,4.10
2023-03-23T12:29:09.032Z,4.90
2023-03-23T12:30:09.047Z,4.70
2023-03-23T12:31:09.076Z,5.10
2023-03-23T12:32:09.085Z,4.70
2023-03-23T12:33:09.107Z,5.40
2023-03-23T12:34:09.111Z,4.70
2023-03-23T12:35:09.132Z,4.10
2023-03-23T12:36:09.190Z,4.10
2023-03-23T12:37:09.157Z,4.60
2023-03-23T12:38:09.195Z,4.50
2023-03-23T12:39:09.196Z,4.90
2023-03-23T12:40:09.217Z,5.40
2023-03-23T12:41:09.221Z,4.80
2023-03-23T12:42:09.249Z,4.50
2023-03-23T12:43:09.259Z,4.80
2023-03-23T12:44:09.265Z,4.30
2023-03-23T12:45:09.293Z,4.00
2023-03-23T12:46:09.297Z,5.20
2023-03-23T12:47:09.313Z,4.80
2023-03-23T12:48:09.336Z,4.40
2023-03-23T12:49:09.344Z,4.40
2023-03-23T12:50:09.369Z,4.00
2023-03-23T12:51:09.388Z,5.60
2023-03-23T12:52:09.401Z,4.40
2023-03-23T12:53:09.416Z,4.40
2023-03-23T12:54:09.446Z,4.30
2023-03-23T12:55:09.436Z,4.20
2023-03-23T12:56:09.456Z,4.80
2023-03-23T12:57:09.482Z,4.00
2023-03-23T12:58:09.491Z,5.20
2023-03-23T12:59:09.502Z,4.60
2023-03-23T13:00:09.515Z,4.80
2023-03-23T13:01:09.537Z,4.00
2023-03-23T13:02:09.557Z,5.00
2023-03-23T13:03:09.572Z,5.70
2023-03-23T13:04:09.585Z,3.80
2023-03-23T13:05:09.612Z,4.10
2023-03-23T13:06:09.619Z,4.50
2023-03-23T13:07:09.640Z,4.40
2023-03-23T13:08:09.650Z,5.40
2023-03-23T13:09:09.660Z,3.70
2023-03-23T13:10:09.701Z,4.30
2023-03-23T13:11:09.689Z,5.30
2023-03-23T13:12:09.714Z,4.40
2023-03-23T13:13:09.727Z,4.20
2023-03-23T13:14:09.744Z,4.30
2023-03-23T13:15:09.764Z,4.20
2023-03-23T13:16:09.822Z,4.90
2023-03-23T13:17:09.791Z,4.90
2023-03-23T13:18:09.801Z,4.60
2023-03-23T13:19:09.824Z,4.70